createdAt,value
2022-09-02T00:02:13.922Z,22.88
2022-09-02T00:04:40.974Z,22.75
2022-09-02T00:07:07.949Z,22.78
2022-09-02T00:09:35.232Z,22.84
2022-09-02T00:12:02.362Z,22.61
2022-09-02T00:14:34.802Z,22.20
2022-09-02T00:17:02.543Z,22.07
2022-09-02T00:19:30.663Z,22.28
2022-09-02T00:21:58.708Z,22.41
2022-09-02T00:24:26.465Z,21.79
2022-09-02T00:26:56.900Z,21.90
2022-09-02T00:29:25.865Z,21.96
2022-09-02T00:31:53.868Z,21.82
2022-09-02T00:34:21.252Z,22.17
2022-09-02T00:36:48.218Z,22.20
2022-09-02T00:39:15.392Z,22.34
2022-09-02T00:41:43.484Z,22.00
2022-09-02T00:44:14.268Z,21.63
2022-09-02T00:46:41.635Z,21.59
2022-09-02T00:49:28.984Z,21.55
2022-09-02T00:52:02.119Z,21.91
2022-09-02T00:54:32.970Z,21.73
2022-09-02T00:57:04.043Z,22.38
2022-09-02T00:59:46.826Z,22.33
2022-09-02T01:02:14.360Z,22.28
2022-09-02T01:04:43.281Z,22.53
2022-09-02T01:07:10.364Z,22.49
2022-09-02T01:09:38.083Z,21.73
2022-09-02T01:12:05.640Z,21.80
2022-09-02T01:14:32.760Z,21.80
2022-09-02T01:17:01.674Z,22.10
2022-09-02T01:19:37.272Z,22.20
2022-09-02T01:22:15.408Z,22.35
2022-09-02T01:24:42.495Z,22.63
2022-09-02T01:27:09.685Z,22.11
2022-09-02T01:29:36.622Z,21.99
2022-09-02T01:32:03.797Z,22.09
2022-09-02T01:34:32.002Z,22.12
2022-09-02T01:36:58.919Z,21.43
2022-09-02T01:39:26.433Z,20.93
2022-09-02T01:41:53.403Z,20.91
2022-09-02T01:44:20.728Z,21.12
2022-09-02T01:46:49.966Z,21.15
2022-09-02T01:49:16.994Z,21.26
2022-09-02T01:51:45.048Z,21.34
2022-09-02T01:54:12.261Z,21.51
2022-09-02T01:56:39.412Z,21.53
2022-09-02T01:59:07.987Z,21.70
2022-09-02T02:01:35.838Z,21.63
2022-09-02T02:04:04.904Z,21.97
2022-09-02T02:06:32.683Z,21.64
2022-09-02T02:09:00.023Z,21.75
2022-09-02T02:11:27.825Z,21.98
2022-09-02T02:13:59.220Z,22.01
2022-09-02T02:16:26.448Z,22.06
2022-09-02T02:18:53.560Z,22.09
2022-09-02T02:21:20.750Z,22.09
2022-09-02T02:23:47.858Z,22.20
2022-09-02T02:26:14.869Z,22.52
2022-09-02T02:28:41.896Z,22.66
2022-09-02T02:31:09.570Z,22.46
2022-09-02T02:33:38.513Z,22.65
2022-09-02T02:36:08.135Z,22.95
2022-09-02T02:38:36.592Z,23.23
2022-09-02T02:41:06.559Z,23.04
2022-09-02T02:43:37.224Z,23.10
2022-09-02T02:46:05.762Z,22.93
2022-09-02T02:48:34.489Z,22.76
2022-09-02T02:51:01.686Z,22.56
2022-09-02T02:53:31.364Z,22.47
2022-09-02T02:55:59.754Z,22.68
2022-09-02T02:58:27.121Z,22.70
2022-09-02T03:00:55.417Z,22.77
2022-09-02T03:03:22.791Z,23.10
2022-09-02T03:05:54.607Z,23.05
2022-09-02T03:08:22.676Z,23.05
2022-09-02T03:10:54.257Z,22.74
2022-09-02T03:13:24.289Z,22.56
2022-09-02T03:15:51.674Z,22.47
2022-09-02T03:18:19.695Z,22.72
2022-09-02T03:20:48.829Z,22.71
2022-09-02T03:23:18.146Z,22.48
2022-09-02T03:25:48.549Z,22.46
2022-09-02T03:28:24.898Z,22.51
2022-09-02T03:30:52.328Z,22.51
2022-09-02T03:33:19.390Z,22.79
2022-09-02T03:35:47.163Z,22.74
2022-09-02T03:38:15.452Z,22.72
2022-09-02T03:40:43.271Z,22.60
2022-09-02T03:43:10.254Z,22.40
2022-09-02T03:45:41.725Z,22.74
2022-09-02T03:48:13.253Z,22.56
2022-09-02T03:50:43.956Z,22.67
2022-09-02T03:53:19.539Z,22.75
2022-09-02T03:55:50.865Z,22.87
2022-09-02T03:58:19.913Z,23.09
2022-09-02T04:00:53.769Z,22.68
2022-09-02T04:03:22.771Z,22.83
2022-09-02T04:05:52.461Z,23.05
2022-09-02T04:08:21.078Z,23.09
2022-09-02T04:10:49.314Z,23.28
2022-09-02T04:13:16.737Z,23.18
2022-09-02T04:15:48.225Z,23.40
2022-09-02T04:18:18.018Z,23.80
2022-09-02T04:20:45.344Z,23.98
2022-09-02T04:23:13.112Z,24.16
2022-09-02T04:25:44.098Z,24.38
2022-09-02T04:28:13.278Z,24.47
2022-09-02T04:30:41.882Z,24.88
2022-09-02T04:33:09.768Z,24.97
2022-09-02T04:35:41.389Z,25.06
2022-09-02T04:38:09.660Z,24.67
2022-09-02T04:40:41.703Z,24.60
2022-09-02T04:43:08.800Z,24.84
2022-09-02T04:45:39.569Z,24.64
2022-09-02T04:48:07.189Z,24.60
2022-09-02T04:50:36.548Z,24.96
2022-09-02T04:53:05.530Z,24.67
2022-09-02T04:55:32.711Z,24.92
2022-09-02T04:58:01.036Z,25.48
2022-09-02T05:00:28.358Z,25.40
2022-09-02T05:02:56.062Z,25.19
2022-09-02T05:05:26.126Z,25.21
2022-09-02T05:07:56.664Z,25.70
2022-09-02T05:10:24.118Z,25.62
2022-09-02T05:12:52.444Z,25.48
2022-09-02T05:15:19.505Z,26.27
2022-09-02T05:17:47.904Z,26.41
2022-09-02T05:20:15.696Z,26.57
2022-09-02T05:22:46.312Z,26.89
2022-09-02T05:25:15.302Z,26.86
2022-09-02T05:27:42.275Z,26.03
2022-09-02T05:30:09.536Z,26.56
2022-09-02T05:32:37.893Z,26.60
2022-09-02T05:35:06.585Z,26.54
2022-09-02T05:37:35.719Z,26.60
2022-09-02T05:40:05.724Z,27.12
2022-09-02T05:42:35.715Z,28.04
2022-09-02T05:45:03.464Z,28.69
2022-09-02T05:47:30.443Z,29.08
2022-09-02T05:49:57.341Z,29.52
2022-09-02T05:52:25.722Z,28.89
2022-09-02T05:54:55.235Z,29.23
2022-09-02T05:57:23.727Z,29.06
2022-09-02T06:00:13.634Z,28.41
2022-09-02T06:02:52.552Z,28.10
2022-09-02T06:05:33.944Z,28.03
2022-09-02T06:08:13.044Z,28.64
2022-09-02T06:10:43.320Z,28.74
2022-09-02T06:13:12.888Z,28.71
2022-09-02T06:15:46.525Z,28.59
2022-09-02T06:18:15.409Z,27.84
2022-09-02T06:20:46.555Z,27.80
2022-09-02T06:23:15.310Z,27.29
2022-09-02T06:25:45.543Z,28.11
2022-09-02T06:28:14.246Z,28.48
2022-09-02T06:30:46.155Z,27.26
2022-09-02T06:33:13.283Z,28.18
2022-09-02T06:35:45.235Z,28.20
2022-09-02T06:38:15.184Z,28.60
2022-09-02T06:40:49.027Z,28.36
2022-09-02T06:43:18.342Z,28.56
2022-09-02T06:46:24.337Z,28.32
2022-09-02T06:48:54.443Z,29.37
2022-09-02T06:51:38.922Z,28.18
2022-09-02T06:54:08.696Z,28.02
2022-09-02T06:56:38.799Z,28.13
2022-09-02T06:59:07.921Z,28.09
2022-09-02T07:01:42.866Z,28.29
2022-09-02T07:04:29.832Z,28.58
2022-09-02T07:06:57.758Z,29.14
2022-09-02T07:09:31.675Z,29.12
2022-09-02T07:12:05.920Z,28.70
2022-09-02T07:14:40.264Z,28.52
2022-09-02T07:17:10.615Z,29.31
2022-09-02T07:19:38.184Z,28.84
2022-09-02T07:22:06.915Z,29.44
2022-09-02T07:24:39.062Z,29.11
2022-09-02T07:27:07.674Z,27.78
2022-09-02T07:29:35.377Z,28.47
2022-09-02T07:32:02.681Z,28.24
2022-09-02T07:34:30.463Z,27.72
2022-09-02T07:37:03.234Z,28.03
2022-09-02T07:39:30.517Z,28.35
2022-09-02T07:41:58.173Z,29.31
2022-09-02T07:44:27.897Z,28.50
2022-09-02T07:46:55.802Z,29.26
2022-09-02T07:49:24.440Z,28.27
2022-09-02T07:51:52.926Z,28.48
2022-09-02T07:54:25.210Z,27.77
2022-09-02T07:56:53.964Z,27.57
2022-09-02T07:59:21.876Z,27.21
2022-09-02T08:01:53.147Z,27.14
2022-09-02T08:04:24.729Z,27.26
2022-09-02T08:06:53.593Z,28.89
2022-09-02T08:09:21.719Z,29.43
2022-09-02T08:11:50.899Z,29.31
2022-09-02T08:14:26.103Z,29.81
2022-09-02T08:16:54.658Z,28.29
2022-09-02T08:19:22.576Z,29.05
2022-09-02T08:21:50.754Z,30.06
2022-09-02T08:24:17.695Z,30.68
2022-09-02T08:26:44.624Z,29.51
2022-09-02T08:29:11.826Z,29.55
2022-09-02T08:31:39.231Z,29.96
2022-09-02T08:34:06.641Z,29.69
2022-09-02T08:36:34.341Z,28.98
2022-09-02T08:39:06.094Z,28.23
2022-09-02T08:41:45.187Z,27.98
2022-09-02T08:44:21.240Z,27.72
2022-09-02T08:46:50.800Z,28.11
2022-09-02T08:49:35.687Z,27.49
2022-09-02T08:52:03.729Z,27.57
2022-09-02T08:54:41.909Z,28.12
2022-09-02T08:57:10.530Z,27.65
2022-09-02T08:59:38.489Z,28.52
2022-09-02T09:02:26.946Z,28.44
2022-09-02T09:05:11.447Z,28.04
2022-09-02T09:08:02.553Z,28.58
2022-09-02T09:10:35.835Z,29.57
2022-09-02T09:13:11.759Z,29.25
2022-09-02T09:15:53.021Z,28.27
2022-09-02T09:18:30.817Z,28.10
2022-09-02T09:20:57.765Z,28.56
2022-09-02T09:23:34.811Z,28.74
2022-09-02T09:26:28.078Z,28.97
2022-09-02T09:28:56.680Z,28.86
2022-09-02T09:31:29.946Z,28.71
2022-09-02T09:34:10.020Z,28.88
2022-09-02T09:36:39.822Z,29.56
2022-09-02T09:39:19.900Z,30.58
2022-09-02T09:41:48.459Z,30.02
2022-09-02T09:44:38.608Z,29.07
2022-09-02T09:47:08.804Z,28.52
2022-09-02T09:49:36.789Z,30.48
2022-09-02T09:52:04.737Z,31.67
2022-09-02T09:54:32.217Z,31.70
2022-09-02T09:57:21.417Z,31.16
2022-09-02T09:59:56.159Z,29.59
2022-09-02T10:02:24.714Z,29.85
2022-09-02T10:05:17.280Z,29.71
2022-09-02T10:07:54.795Z,30.27
2022-09-02T10:10:24.417Z,31.51
2022-09-02T10:12:53.922Z,30.56
2022-09-02T10:15:29.420Z,29.33
2022-09-02T10:18:07.775Z,30.01
2022-09-02T10:21:18.062Z,30.85
2022-09-02T10:24:04.506Z,32.83
2022-09-02T10:26:49.260Z,31.14
2022-09-02T10:29:28.084Z,30.58
2022-09-02T10:32:10.379Z,30.85
2022-09-02T10:35:21.504Z,31.58
2022-09-02T10:38:09.712Z,32.47
2022-09-02T10:40:45.760Z,31.91
2022-09-02T10:43:33.094Z,32.85
2022-09-02T10:46:01.449Z,31.49
2022-09-02T10:48:46.921Z,31.81
2022-09-02T10:51:33.519Z,32.55
2022-09-02T10:54:12.527Z,32.55
2022-09-02T10:56:50.799Z,32.23
2022-09-02T10:59:27.249Z,31.96
2022-09-02T11:02:07.483Z,31.28
2022-09-02T11:04:34.349Z,29.87
2022-09-02T11:07:05.995Z,29.50
2022-09-02T11:09:46.253Z,31.42
2022-09-02T11:12:15.980Z,32.09
2022-09-02T11:15:04.547Z,32.54
2022-09-02T11:17:47.535Z,31.84
2022-09-02T11:20:35.741Z,32.00
2022-09-02T11:23:27.226Z,31.00
2022-09-02T11:26:00.168Z,29.73
2022-09-02T11:28:49.014Z,29.88
2022-09-02T11:31:46.585Z,30.09
2022-09-02T11:34:25.744Z,29.73
2022-09-02T11:36:53.138Z,31.10
2022-09-02T11:39:53.989Z,31.92
2022-09-02T11:42:41.469Z,31.98
2022-09-02T11:45:44.077Z,30.96
2022-09-02T11:48:24.565Z,30.50
2022-09-02T11:51:03.404Z,30.81
2022-09-02T11:53:35.947Z,31.50
2022-09-02T11:56:15.921Z,31.90
2022-09-02T11:58:48.349Z,31.39
2022-09-02T12:01:15.243Z,31.86
2022-09-02T12:04:27.635Z,31.47
2022-09-02T12:06:58.569Z,30.17
2022-09-02T12:09:48.801Z,31.02
2022-09-02T12:12:37.524Z,30.95
2022-09-02T12:15:08.323Z,31.06
2022-09-02T12:17:51.965Z,30.39
2022-09-02T12:20:41.627Z,30.80
2022-09-02T12:23:30.943Z,30.01
2022-09-02T12:26:06.981Z,28.67
2022-09-02T12:28:34.207Z,27.83
2022-09-02T12:31:08.950Z,27.93
2022-09-02T12:33:44.995Z,27.47
2022-09-02T12:36:45.450Z,27.86
2022-09-02T12:39:35.811Z,27.50
2022-09-02T12:42:07.736Z,27.98
2022-09-02T12:45:00.195Z,27.92
2022-09-02T12:47:53.115Z,28.44
2022-09-02T12:50:23.966Z,29.70
2022-09-02T12:52:54.488Z,28.49
2022-09-02T12:55:24.103Z,29.09
2022-09-02T12:57:55.262Z,28.45
2022-09-02T13:00:38.084Z,28.57
2022-09-02T13:03:23.569Z,27.48
2022-09-02T13:06:07.733Z,27.27
2022-09-02T13:08:50.178Z,27.45
2022-09-02T13:11:37.208Z,28.61
2022-09-02T13:14:25.990Z,29.41
2022-09-02T13:16:55.678Z,29.08
2022-09-02T13:19:48.750Z,29.14
2022-09-02T13:22:35.250Z,28.86
2022-09-02T13:25:41.772Z,28.83
2022-09-02T13:28:14.402Z,29.03
2022-09-02T13:31:03.090Z,28.91
2022-09-02T13:33:30.164Z,29.16
2022-09-02T13:36:01.434Z,28.82
2022-09-02T13:38:30.227Z,28.87
2022-09-02T13:40:57.448Z,29.52
2022-09-02T13:43:27.142Z,29.23
2022-09-02T13:46:01.735Z,29.22
2022-09-02T13:48:33.578Z,28.54
2022-09-02T13:51:12.179Z,28.28
2022-09-02T13:53:45.521Z,28.18
2022-09-02T13:56:25.719Z,28.25
2022-09-02T13:58:57.001Z,28.40
2022-09-02T14:01:29.642Z,27.47
2022-09-02T14:03:59.256Z,27.17
2022-09-02T14:06:30.847Z,26.80
2022-09-02T14:09:01.480Z,26.91
2022-09-02T14:11:32.443Z,26.60
2022-09-02T14:13:59.613Z,26.64
2022-09-02T14:16:33.271Z,26.55
2022-09-02T14:19:22.123Z,26.82
2022-09-02T14:21:57.765Z,26.65
2022-09-02T14:24:30.111Z,26.21
2022-09-02T14:26:59.177Z,26.68
2022-09-02T14:29:30.248Z,26.26
2022-09-02T14:32:15.818Z,26.32
2022-09-02T14:34:45.014Z,26.43
2022-09-02T14:37:24.062Z,26.05
2022-09-02T14:40:12.220Z,26.39
2022-09-02T14:42:57.243Z,26.26
2022-09-02T14:45:33.185Z,25.91
2022-09-02T14:48:22.116Z,25.57
2022-09-02T14:50:50.662Z,25.71
2022-09-02T14:53:22.983Z,25.73
2022-09-02T14:55:55.492Z,25.68
2022-09-02T14:58:27.066Z,25.54
2022-09-02T15:01:00.434Z,25.81
2022-09-02T15:03:29.589Z,25.73
2022-09-02T15:05:56.950Z,25.87
2022-09-02T15:08:24.077Z,25.75
2022-09-02T15:10:54.327Z,25.65
2022-09-02T15:13:38.822Z,25.53
2022-09-02T15:16:05.944Z,25.50
2022-09-02T15:18:32.936Z,25.43
2022-09-02T15:21:00.116Z,25.59
2022-09-02T15:23:31.617Z,25.69
2022-09-02T15:26:02.032Z,25.77
2022-09-02T15:28:30.109Z,25.41
2022-09-02T15:31:01.327Z,25.07
2022-09-02T15:33:29.201Z,25.12
2022-09-02T15:36:04.742Z,24.94
2022-09-02T15:38:31.750Z,24.69
2022-09-02T15:41:22.977Z,24.53
2022-09-02T15:43:53.447Z,25.01
2022-09-02T15:46:26.560Z,25.27
2022-09-02T15:48:57.887Z,25.66
2022-09-02T15:51:27.765Z,25.71
2022-09-02T15:53:59.456Z,25.44
2022-09-02T15:56:28.273Z,25.65
2022-09-02T15:59:00.800Z,25.75
2022-09-02T16:01:29.819Z,25.31
2022-09-02T16:03:58.068Z,24.84
2022-09-02T16:06:25.936Z,24.47
2022-09-02T16:08:52.920Z,24.74
2022-09-02T16:11:21.237Z,24.91
2022-09-02T16:13:48.897Z,25.29
2022-09-02T16:16:16.076Z,25.03
2022-09-02T16:18:44.218Z,25.19
2022-09-02T16:21:12.718Z,24.98
2022-09-02T16:23:39.992Z,25.39
2022-09-02T16:26:15.730Z,25.07
2022-09-02T16:28:44.995Z,24.99
2022-09-02T16:31:17.527Z,25.01
2022-09-02T16:34:09.146Z,24.74
2022-09-02T16:36:38.952Z,25.13
2022-09-02T16:39:07.190Z,24.78
2022-09-02T16:41:36.772Z,24.53
2022-09-02T16:44:12.696Z,24.64
2022-09-02T16:46:42.395Z,24.66
2022-09-02T16:49:15.511Z,24.27
2022-09-02T16:51:42.505Z,24.68
2022-09-02T16:54:17.332Z,24.52
2022-09-02T16:56:50.692Z,24.53
2022-09-02T16:59:19.308Z,24.79
2022-09-02T17:01:46.639Z,24.83
2022-09-02T17:04:13.626Z,24.82
2022-09-02T17:06:42.336Z,24.76
2022-09-02T17:09:10.034Z,24.64
2022-09-02T17:11:39.888Z,24.21
2022-09-02T17:14:16.284Z,24.04
2022-09-02T17:16:46.275Z,24.03
2022-09-02T17:19:21.601Z,23.96
2022-09-02T17:21:51.125Z,23.94
2022-09-02T17:24:20.110Z,24.34
2022-09-02T17:26:50.816Z,24.16
2022-09-02T17:29:47.546Z,23.61
2022-09-02T17:32:07.900Z,23.44
2022-09-02T17:34:34.875Z,23.28
2022-09-02T17:37:01.860Z,23.41
2022-09-02T17:39:28.922Z,23.68
2022-09-02T17:41:57.757Z,23.38
2022-09-02T17:44:26.127Z,23.86
2022-09-02T17:46:54.031Z,23.50
2022-09-02T17:49:21.259Z,23.74
2022-09-02T17:51:49.715Z,23.77
2022-09-02T17:54:16.696Z,23.75
2022-09-02T17:57:29.339Z,23.91
2022-09-02T18:00:18.727Z,23.77
2022-09-02T18:03:22.292Z,23.84
2022-09-02T18:06:16.583Z,23.89
2022-09-02T18:08:46.318Z,23.92
2022-09-02T18:11:13.464Z,24.21
2022-09-02T18:14:14.592Z,24.05
2022-09-02T18:16:59.374Z,24.50
2022-09-02T18:19:36.669Z,24.03
2022-09-02T18:22:21.488Z,22.82
2022-09-02T18:24:51.542Z,22.80
2022-09-02T18:27:27.616Z,22.67
2022-09-02T18:29:57.377Z,22.31
2022-09-02T18:32:45.772Z,22.35
2022-09-02T18:35:24.035Z,22.56
2022-09-02T18:37:59.575Z,22.43
2022-09-02T18:40:47.624Z,22.31
2022-09-02T18:43:35.022Z,22.14
2022-09-02T18:46:03.492Z,22.65
2022-09-02T18:48:36.196Z,22.74
2022-09-02T18:51:25.219Z,22.95
2022-09-02T18:53:57.894Z,22.43
2022-09-02T18:56:31.395Z,22.31
2022-09-02T18:59:08.119Z,22.46
2022-09-02T19:01:43.896Z,22.80
2022-09-02T19:04:11.574Z,22.98
2022-09-02T19:06:40.445Z,23.22
2022-09-02T19:09:12.485Z,22.96
2022-09-02T19:11:40.080Z,23.10
2022-09-02T19:14:26.529Z,23.59
2022-09-02T19:16:55.181Z,23.65
2022-09-02T19:19:22.175Z,23.85
2022-09-02T19:21:50.152Z,24.12
2022-09-02T19:24:26.998Z,24.38
2022-09-02T19:27:09.086Z,24.29
2022-09-02T19:29:40.422Z,24.21
2022-09-02T19:32:08.390Z,24.18
2022-09-02T19:34:39.225Z,23.87
2022-09-02T19:37:06.904Z,23.77
2022-09-02T19:39:35.242Z,23.72
2022-09-02T19:42:02.197Z,23.70
2022-09-02T19:44:29.705Z,24.07
2022-09-02T19:47:49.707Z,24.10
2022-09-02T19:49:44.361Z,24.14
2022-09-02T19:52:11.507Z,24.29
2022-09-02T19:54:38.965Z,24.47
2022-09-02T19:57:06.021Z,24.56
2022-09-02T19:59:33.673Z,24.91
2022-09-02T20:02:00.903Z,24.73
2022-09-02T20:04:29.898Z,24.71
2022-09-02T20:06:58.993Z,24.94
2022-09-02T20:09:29.372Z,24.71
2022-09-02T20:11:56.752Z,24.49
2022-09-02T20:14:23.836Z,24.33
2022-09-02T20:17:00.637Z,24.47
2022-09-02T20:19:28.087Z,24.31
2022-09-02T20:21:55.144Z,24.41
2022-09-02T20:24:31.602Z,24.53
2022-09-02T20:27:21.959Z,24.47
2022-09-02T20:30:00.970Z,23.65
2022-09-02T20:32:39.836Z,23.50
2022-09-02T20:35:28.303Z,23.61
2022-09-02T20:38:07.457Z,23.77
2022-09-02T20:40:46.450Z,23.41
2022-09-02T20:43:44.476Z,23.84
2022-09-02T20:46:29.518Z,23.37
2022-09-02T20:49:20.462Z,23.27
2022-09-02T20:52:11.172Z,23.19
2022-09-02T20:54:41.051Z,22.97
2022-09-02T20:57:10.931Z,23.11
2022-09-02T20:59:38.553Z,23.56
2022-09-02T21:02:09.735Z,23.74
2022-09-02T21:04:44.816Z,23.82
2022-09-02T21:07:17.924Z,23.86
2022-09-02T21:10:09.369Z,24.16
2022-09-02T21:12:55.233Z,23.85
2022-09-02T21:15:48.263Z,23.76
2022-09-02T21:18:40.628Z,23.45
2022-09-02T21:21:41.667Z,24.02
2022-09-02T21:24:18.160Z,24.30
2022-09-02T21:26:56.783Z,24.60
2022-09-02T21:29:28.233Z,24.23
2022-09-02T21:32:13.298Z,24.15
2022-09-02T21:34:50.894Z,23.68
2022-09-02T21:37:20.203Z,23.98
2022-09-02T21:39:55.616Z,23.65
2022-09-02T21:42:25.293Z,23.51
2022-09-02T21:45:06.065Z,23.17
2022-09-02T21:47:43.734Z,23.32
2022-09-02T21:50:22.040Z,23.65
2022-09-02T21:52:52.812Z,23.99
2022-09-02T21:55:42.539Z,24.20
2022-09-02T21:58:20.623Z,24.27
2022-09-02T22:01:08.560Z,24.50
2022-09-02T22:03:47.027Z,24.52
2022-09-02T22:06:41.037Z,24.52
2022-09-02T22:09:27.784Z,24.62
2022-09-02T22:12:05.913Z,24.72
2022-09-02T22:14:44.321Z,24.65
2022-09-02T22:17:33.795Z,24.86
2022-09-02T22:20:02.995Z,24.91
2022-09-02T22:22:34.966Z,24.67
2022-09-02T22:25:01.981Z,24.85
2022-09-02T22:27:37.334Z,24.95
2022-09-02T22:30:14.478Z,24.97
2022-09-02T22:32:47.571Z,25.09
2022-09-02T22:35:25.289Z,24.78
2022-09-02T22:37:59.144Z,24.51
2022-09-02T22:40:32.491Z,24.46
2022-09-02T22:43:06.209Z,24.93
2022-09-02T22:46:04.179Z,25.04
2022-09-02T22:48:56.805Z,25.01
2022-09-02T22:52:01.682Z,25.18
2022-09-02T22:54:32.224Z,25.12
2022-09-02T22:57:15.846Z,24.87
2022-09-02T23:00:08.237Z,25.01
2022-09-02T23:03:14.337Z,24.80
2022-09-02T23:06:03.296Z,24.11
2022-09-02T23:08:30.842Z,24.27
2022-09-02T23:11:09.565Z,24.29
2022-09-02T23:13:45.441Z,24.00
2022-09-02T23:16:23.708Z,24.25
2022-09-02T23:19:17.650Z,24.75
2022-09-02T23:22:12.278Z,24.71
2022-09-02T23:24:45.217Z,24.88
2022-09-02T23:27:51.825Z,24.80
2022-09-02T23:30:18.794Z,24.72
2022-09-02T23:33:13.099Z,24.45
2022-09-02T23:36:11.810Z,24.34
2022-09-02T23:38:53.951Z,24.38
2022-09-02T23:41:20.900Z,24.30
2022-09-02T23:43:49.686Z,24.45
2022-09-02T23:46:24.086Z,24.53
2022-09-02T23:49:06.008Z,24.83
2022-09-02T23:51:56.222Z,24.72
2022-09-02T23:54:38.010Z,24.58
2022-09-02T23:57:29.863Z,24.29
